Aviation Digital Data Service (ADDS)

Output produced by METARs form (0321 UTC 18 June 2019)
found at http://www.aviationweather.gov/metar/data/
 
METAR text: EBFS 180255Z AUTO VRB02KT 9999 BKN055/// BKN220/// 17/12 Q1016 BLU
Conditions at: EBFS (FLORENNES (BEL-A, BE) observed 0255 UTC 18 June 2019
Temperature: 17.0°C (63°F)
Dewpoint: 12.0°C (54°F) [RH = 72%]
Pressure (altimeter): 30.00 inches Hg (1016.0 mb)
Winds: variable direction winds at 2 MPH (2 knots; 1.0 m/s)
Visibility: 6 or more miles (10+ km)
Ceiling: 5500 feet AGL
Clouds: broken clouds at 5500 feet AGL
broken clouds at 22000 feet AGL
Weather: no significant weather observed at this time

METAR text: EBFS 180225Z AUTO VRB02KT 9999 FEW055/// BKN150/// BKN220/// 17/12 Q1016 BLU
Conditions at: EBFS (FLORENNES (BEL-A, BE) observed 0225 UTC 18 June 2019
Temperature: 17.0°C (63°F)
Dewpoint: 12.0°C (54°F) [RH = 72%]
Pressure (altimeter): 30.00 inches Hg (1016.0 mb)
Winds: variable direction winds at 2 MPH (2 knots; 1.0 m/s)
Visibility: 6 or more miles (10+ km)
Ceiling: 15000 feet AGL
Clouds: few clouds at 5500 feet AGL
broken clouds at 15000 feet AGL
broken clouds at 22000 feet AGL
Weather: no significant weather observed at this time

METAR text: EBFS 180155Z AUTO VRB01KT 9999 SCT150/// BKN220/// 17/12 Q1016 BLU
Conditions at: EBFS (FLORENNES (BEL-A, BE) observed 0155 UTC 18 June 2019
Temperature: 17.0°C (63°F)
Dewpoint: 12.0°C (54°F) [RH = 72%]
Pressure (altimeter): 30.00 inches Hg (1016.0 mb)
Winds: variable direction winds at 1 MPH (1 knots; 0.5 m/s)
Visibility: 6 or more miles (10+ km)
Ceiling: 22000 feet AGL
Clouds: scattered clouds at 15000 feet AGL
broken clouds at 22000 feet AGL
Weather: no significant weather observed at this time

METAR text: EBFS 180125Z AUTO VRB01KT 9999 FEW150/// 17/12 Q1017 BLU
Conditions at: EBFS (FLORENNES (BEL-A, BE) observed 0125 UTC 18 June 2019
Temperature: 17.0°C (63°F)
Dewpoint: 12.0°C (54°F) [RH = 72%]
Pressure (altimeter): 30.03 inches Hg (1017.0 mb)
Winds: variable direction winds at 1 MPH (1 knots; 0.5 m/s)
Visibility: 6 or more miles (10+ km)
Ceiling: at least 12,000 feet AGL
Clouds: few clouds at 15000 feet AGL
Weather: no significant weather observed at this time

METAR text: EBFS 180055Z AUTO VRB02KT 9999 FEW150/// 17/12 Q1017 BLU
Conditions at: EBFS (FLORENNES (BEL-A, BE) observed 0055 UTC 18 June 2019
Temperature: 17.0°C (63°F)
Dewpoint: 12.0°C (54°F) [RH = 72%]
Pressure (altimeter): 30.03 inches Hg (1017.0 mb)
Winds: variable direction winds at 2 MPH (2 knots; 1.0 m/s)
Visibility: 6 or more miles (10+ km)
Ceiling: at least 12,000 feet AGL
Clouds: few clouds at 15000 feet AGL
Weather: no significant weather observed at this time

METAR text: EBFS 180025Z AUTO VRB01KT 9999 NCD 17/12 Q1017 BLU
Conditions at: EBFS (FLORENNES (BEL-A, BE) observed 0025 UTC 18 June 2019
Temperature: 17.0°C (63°F)
Dewpoint: 12.0°C (54°F) [RH = 72%]
Pressure (altimeter): 30.03 inches Hg (1017.0 mb)
Winds: variable direction winds at 1 MPH (1 knots; 0.5 m/s)
Visibility: 6 or more miles (10+ km)
Ceiling: at least 12,000 feet AGL
Clouds: sky clear below 12,000 feet AGL
Weather: no significant weather observed at this time

METAR text: EBFS 172355Z AUTO VRB01KT 9999 FEW220/// 17/13 Q1017 BLU
Conditions at: EBFS (FLORENNES (BEL-A, BE) observed 2355 UTC 17 June 2019
Temperature: 17.0°C (63°F)
Dewpoint: 13.0°C (55°F) [RH = 77%]
Pressure (altimeter): 30.03 inches Hg (1017.0 mb)
Winds: variable direction winds at 1 MPH (1 knots; 0.5 m/s)
Visibility: 6 or more miles (10+ km)
Ceiling: at least 12,000 feet AGL
Clouds: few clouds at 22000 feet AGL
Weather: no significant weather observed at this time

METAR text: EBFS 172325Z AUTO VRB02KT 9999 NCD 17/13 Q1017 BLU
Conditions at: EBFS (FLORENNES (BEL-A, BE) observed 2325 UTC 17 June 2019
Temperature: 17.0°C (63°F)
Dewpoint: 13.0°C (55°F) [RH = 77%]
Pressure (altimeter): 30.03 inches Hg (1017.0 mb)
Winds: variable direction winds at 2 MPH (2 knots; 1.0 m/s)
Visibility: 6 or more miles (10+ km)
Ceiling: at least 12,000 feet AGL
Clouds: sky clear below 12,000 feet AGL
Weather: no significant weather observed at this time

METAR text: EBFS 172255Z AUTO 27004KT 9999 NCD 17/13 Q1018 BLU
Conditions at: EBFS (FLORENNES (BEL-A, BE) observed 2255 UTC 17 June 2019
Temperature: 17.0°C (63°F)
Dewpoint: 13.0°C (55°F) [RH = 77%]
Pressure (altimeter): 30.06 inches Hg (1018.0 mb)
Winds: from the W (270 degrees) at 5 MPH (4 knots; 2.1 m/s)
Visibility: 6 or more miles (10+ km)
Ceiling: at least 12,000 feet AGL
Clouds: sky clear below 12,000 feet AGL
Weather: no significant weather observed at this time

METAR text: EBFS 172225Z AUTO 25004KT 9999 NCD 18/13 Q1018 BLU
Conditions at: EBFS (FLORENNES (BEL-A, BE) observed 2225 UTC 17 June 2019
Temperature: 18.0°C (64°F)
Dewpoint: 13.0°C (55°F) [RH = 73%]
Pressure (altimeter): 30.06 inches Hg (1018.0 mb)
Winds: from the WSW (250 degrees) at 5 MPH (4 knots; 2.1 m/s)
Visibility: 6 or more miles (10+ km)
Ceiling: at least 12,000 feet AGL
Clouds: sky clear below 12,000 feet AGL
Weather: no significant weather observed at this time

METAR text: EBFS 172155Z AUTO VRB01KT 9999 NCD 18/13 Q1018 BLU
Conditions at: EBFS (FLORENNES (BEL-A, BE) observed 2155 UTC 17 June 2019
Temperature: 18.0°C (64°F)
Dewpoint: 13.0°C (55°F) [RH = 73%]
Pressure (altimeter): 30.06 inches Hg (1018.0 mb)
Winds: variable direction winds at 1 MPH (1 knots; 0.5 m/s)
Visibility: 6 or more miles (10+ km)
Ceiling: at least 12,000 feet AGL
Clouds: sky clear below 12,000 feet AGL
Weather: no significant weather observed at this time

METAR text: EBFS 172125Z AUTO VRB01KT 9999 NCD 19/13 Q1018 BLU
Conditions at: EBFS (FLORENNES (BEL-A, BE) observed 2125 UTC 17 June 2019
Temperature: 19.0°C (66°F)
Dewpoint: 13.0°C (55°F) [RH = 68%]
Pressure (altimeter): 30.06 inches Hg (1018.0 mb)
Winds: variable direction winds at 1 MPH (1 knots; 0.5 m/s)
Visibility: 6 or more miles (10+ km)
Ceiling: at least 12,000 feet AGL
Clouds: sky clear below 12,000 feet AGL
Weather: no significant weather observed at this time

METAR text: EBFS 172055Z AUTO 33003KT 9999 NCD 19/13 Q1018 BLU
Conditions at: EBFS (FLORENNES (BEL-A, BE) observed 2055 UTC 17 June 2019
Temperature: 19.0°C (66°F)
Dewpoint: 13.0°C (55°F) [RH = 68%]
Pressure (altimeter): 30.06 inches Hg (1018.0 mb)
Winds: from the NNW (330 degrees) at 3 MPH (3 knots; 1.5 m/s)
Visibility: 6 or more miles (10+ km)
Ceiling: at least 12,000 feet AGL
Clouds: sky clear below 12,000 feet AGL
Weather: no significant weather observed at this time

METAR text: EBFS 172025Z AUTO 33004KT 9999 NCD 20/13 Q1018 BLU
Conditions at: EBFS (FLORENNES (BEL-A, BE) observed 2025 UTC 17 June 2019
Temperature: 20.0°C (68°F)
Dewpoint: 13.0°C (55°F) [RH = 64%]
Pressure (altimeter): 30.06 inches Hg (1018.0 mb)
Winds: from the NNW (330 degrees) at 5 MPH (4 knots; 2.1 m/s)
Visibility: 6 or more miles (10+ km)
Ceiling: at least 12,000 feet AGL
Clouds: sky clear below 12,000 feet AGL
Weather: no significant weather observed at this time

METAR text: EBFS 171955Z AUTO 30003KT 9999 FEW060/// 20/13 Q1018 BLU
Conditions at: EBFS (FLORENNES (BEL-A, BE) observed 1955 UTC 17 June 2019
Temperature: 20.0°C (68°F)
Dewpoint: 13.0°C (55°F) [RH = 64%]
Pressure (altimeter): 30.06 inches Hg (1018.0 mb)
Winds: from the WNW (300 degrees) at 3 MPH (3 knots; 1.5 m/s)
Visibility: 6 or more miles (10+ km)
Ceiling: at least 12,000 feet AGL
Clouds: few clouds at 6000 feet AGL
Weather: no significant weather observed at this time

METAR text: EBFS 171925Z AUTO 31003KT 9999 BKN060/// 22/13 Q1017 BLU
Conditions at: EBFS (FLORENNES (BEL-A, BE) observed 1925 UTC 17 June 2019
Temperature: 22.0°C (72°F)
Dewpoint: 13.0°C (55°F) [RH = 57%]
Pressure (altimeter): 30.03 inches Hg (1017.0 mb)
Winds: from the NW (310 degrees) at 3 MPH (3 knots; 1.5 m/s)
Visibility: 6 or more miles (10+ km)
Ceiling: 6000 feet AGL
Clouds: broken clouds at 6000 feet AGL
Weather: no significant weather observed at this time

METAR text: EBFS 171855Z AUTO 29003KT 9999 SCT060/// 22/13 Q1018 BLU
Conditions at: EBFS (FLORENNES (BEL-A, BE) observed 1855 UTC 17 June 2019
Temperature: 22.0°C (72°F)
Dewpoint: 13.0°C (55°F) [RH = 57%]
Pressure (altimeter): 30.06 inches Hg (1018.0 mb)
Winds: from the WNW (290 degrees) at 3 MPH (3 knots; 1.5 m/s)
Visibility: 6 or more miles (10+ km)
Ceiling: at least 12,000 feet AGL
Clouds: scattered clouds at 6000 feet AGL
Weather: no significant weather observed at this time

METAR text: EBFS 171825Z AUTO 28004KT 9999 FEW060/// 23/12 Q1018 BLU
Conditions at: EBFS (FLORENNES (BEL-A, BE) observed 1825 UTC 17 June 2019
Temperature: 23.0°C (73°F)
Dewpoint: 12.0°C (54°F) [RH = 50%]
Pressure (altimeter): 30.06 inches Hg (1018.0 mb)
Winds: from the W (280 degrees) at 5 MPH (4 knots; 2.1 m/s)
Visibility: 6 or more miles (10+ km)
Ceiling: at least 12,000 feet AGL
Clouds: few clouds at 6000 feet AGL
Weather: no significant weather observed at this time

METAR text: EBFS 171755Z AUTO 28005KT 9999 NCD 24/13 Q1018 BLU
Conditions at: EBFS (FLORENNES (BEL-A, BE) observed 1755 UTC 17 June 2019
Temperature: 24.0°C (75°F)
Dewpoint: 13.0°C (55°F) [RH = 50%]
Pressure (altimeter): 30.06 inches Hg (1018.0 mb)
Winds: from the W (280 degrees) at 6 MPH (5 knots; 2.6 m/s)
Visibility: 6 or more miles (10+ km)
Ceiling: at least 12,000 feet AGL
Clouds: sky clear below 12,000 feet AGL
Weather: no significant weather observed at this time

METAR text: EBFS 171725Z AUTO VRB02KT 9999 FEW055/// 23/11 Q1018 BLU
Conditions at: EBFS (FLORENNES (BEL-A, BE) observed 1725 UTC 17 June 2019
Temperature: 23.0°C (73°F)
Dewpoint: 11.0°C (52°F) [RH = 47%]
Pressure (altimeter): 30.06 inches Hg (1018.0 mb)
Winds: variable direction winds at 2 MPH (2 knots; 1.0 m/s)
Visibility: 6 or more miles (10+ km)
Ceiling: at least 12,000 feet AGL
Clouds: few clouds at 5500 feet AGL
Weather: no significant weather observed at this time

METAR text: EBFS 171655Z AUTO VRB01KT 9999 FEW055/// 23/12 Q1018 BLU
Conditions at: EBFS (FLORENNES (BEL-A, BE) observed 1655 UTC 17 June 2019
Temperature: 23.0°C (73°F)
Dewpoint: 12.0°C (54°F) [RH = 50%]
Pressure (altimeter): 30.06 inches Hg (1018.0 mb)
Winds: variable direction winds at 1 MPH (1 knots; 0.5 m/s)
Visibility: 6 or more miles (10+ km)
Ceiling: at least 12,000 feet AGL
Clouds: few clouds at 5500 feet AGL
Weather: no significant weather observed at this time

METAR text: EBFS 171625Z AUTO VRB02KT 9999 NCD 24/11 Q1018 BLU
Conditions at: EBFS (FLORENNES (BEL-A, BE) observed 1625 UTC 17 June 2019
Temperature: 24.0°C (75°F)
Dewpoint: 11.0°C (52°F) [RH = 44%]
Pressure (altimeter): 30.06 inches Hg (1018.0 mb)
Winds: variable direction winds at 2 MPH (2 knots; 1.0 m/s)
Visibility: 6 or more miles (10+ km)
Ceiling: at least 12,000 feet AGL
Clouds: sky clear below 12,000 feet AGL
Weather: no significant weather observed at this time

METAR text: EBFS 171555Z AUTO VRB01KT 9999 NCD 24/11 Q1018 BLU
Conditions at: EBFS (FLORENNES (BEL-A, BE) observed 1555 UTC 17 June 2019
Temperature: 24.0°C (75°F)
Dewpoint: 11.0°C (52°F) [RH = 44%]
Pressure (altimeter): 30.06 inches Hg (1018.0 mb)
Winds: variable direction winds at 1 MPH (1 knots; 0.5 m/s)
Visibility: 6 or more miles (10+ km)
Ceiling: at least 12,000 feet AGL
Clouds: sky clear below 12,000 feet AGL
Weather: no significant weather observed at this time

METAR text: EBFS 171525Z VRB02KT 9999 SCT060 24/12 Q1018 BLU BLU
Conditions at: EBFS (FLORENNES (BEL-A, BE) observed 1525 UTC 17 June 2019
Temperature: 24.0°C (75°F)
Dewpoint: 12.0°C (54°F) [RH = 47%]
Pressure (altimeter): 30.06 inches Hg (1018.0 mb)
Winds: variable direction winds at 2 MPH (2 knots; 1.0 m/s)
Visibility: 6 or more miles (10+ km)
Ceiling: at least 12,000 feet AGL
Clouds: scattered clouds at 6000 feet AGL
Weather: no significant weather observed at this time

METAR text: EBFS 171455Z 34003KT 9999 FEW055 24/12 Q1019 BLU BLU
Conditions at: EBFS (FLORENNES (BEL-A, BE) observed 1455 UTC 17 June 2019
Temperature: 24.0°C (75°F)
Dewpoint: 12.0°C (54°F) [RH = 47%]
Pressure (altimeter): 30.09 inches Hg (1019.0 mb)
Winds: from the NNW (340 degrees) at 3 MPH (3 knots; 1.5 m/s)
Visibility: 6 or more miles (10+ km)
Ceiling: at least 12,000 feet AGL
Clouds: few clouds at 5500 feet AGL
Weather: no significant weather observed at this time

METAR text: EBFS 171425Z VRB02KT 9999 FEW055 23/13 Q1019 BLU BLU
Conditions at: EBFS (FLORENNES (BEL-A, BE) observed 1425 UTC 17 June 2019
Temperature: 23.0°C (73°F)
Dewpoint: 13.0°C (55°F) [RH = 53%]
Pressure (altimeter): 30.09 inches Hg (1019.0 mb)
Winds: variable direction winds at 2 MPH (2 knots; 1.0 m/s)
Visibility: 6 or more miles (10+ km)
Ceiling: at least 12,000 feet AGL
Clouds: few clouds at 5500 feet AGL
Weather: no significant weather observed at this time

METAR text: EBFS 171355Z 04005KT 9999 FEW055 24/12 Q1019 BLU BLU
Conditions at: EBFS (FLORENNES (BEL-A, BE) observed 1355 UTC 17 June 2019
Temperature: 24.0°C (75°F)
Dewpoint: 12.0°C (54°F) [RH = 47%]
Pressure (altimeter): 30.09 inches Hg (1019.0 mb)
Winds: from the NE (40 degrees) at 6 MPH (5 knots; 2.6 m/s)
Visibility: 6 or more miles (10+ km)
Ceiling: at least 12,000 feet AGL
Clouds: few clouds at 5500 feet AGL
Weather: no significant weather observed at this time

METAR text: EBFS 171325Z VRB02KT 9999 FEW055 25/11 Q1019 BLU BLU
Conditions at: EBFS (FLORENNES (BEL-A, BE) observed 1325 UTC 17 June 2019
Temperature: 25.0°C (77°F)
Dewpoint: 11.0°C (52°F) [RH = 41%]
Pressure (altimeter): 30.09 inches Hg (1019.0 mb)
Winds: variable direction winds at 2 MPH (2 knots; 1.0 m/s)
Visibility: 6 or more miles (10+ km)
Ceiling: at least 12,000 feet AGL
Clouds: few clouds at 5500 feet AGL
Weather: no significant weather observed at this time

METAR text: EBFS 171255Z 15005KT 9999 FEW050 23/11 Q1019 BLU BLU
Conditions at: EBFS (FLORENNES (BEL-A, BE) observed 1255 UTC 17 June 2019
Temperature: 23.0°C (73°F)
Dewpoint: 11.0°C (52°F) [RH = 47%]
Pressure (altimeter): 30.09 inches Hg (1019.0 mb)
Winds: from the SSE (150 degrees) at 6 MPH (5 knots; 2.6 m/s)
Visibility: 6 or more miles (10+ km)
Ceiling: at least 12,000 feet AGL
Clouds: few clouds at 5000 feet AGL
Weather: no significant weather observed at this time

METAR text: EBFS 171225Z 18004KT 9999 FEW050 22/10 Q1020 BLU BLU
Conditions at: EBFS (FLORENNES (BEL-A, BE) observed 1225 UTC 17 June 2019
Temperature: 22.0°C (72°F)
Dewpoint: 10.0°C (50°F) [RH = 46%]
Pressure (altimeter): 30.12 inches Hg (1020.0 mb)
Winds: from the S (180 degrees) at 5 MPH (4 knots; 2.1 m/s)
Visibility: 6 or more miles (10+ km)
Ceiling: at least 12,000 feet AGL
Clouds: few clouds at 5000 feet AGL
Weather: no significant weather observed at this time

METAR text: EBFS 171155Z 09003KT 9999 FEW048 23/12 Q1020 BLU BLU
Conditions at: EBFS (FLORENNES (BEL-A, BE) observed 1155 UTC 17 June 2019
Temperature: 23.0°C (73°F)
Dewpoint: 12.0°C (54°F) [RH = 50%]
Pressure (altimeter): 30.12 inches Hg (1020.0 mb)
Winds: from the E (90 degrees) at 3 MPH (3 knots; 1.5 m/s)
Visibility: 6 or more miles (10+ km)
Ceiling: at least 12,000 feet AGL
Clouds: few clouds at 4800 feet AGL
Weather: no significant weather observed at this time

METAR text: EBFS 171125Z 15004KT 9999 FEW044 22/11 Q1020 BLU BLU
Conditions at: EBFS (FLORENNES (BEL-A, BE) observed 1125 UTC 17 June 2019
Temperature: 22.0°C (72°F)
Dewpoint: 11.0°C (52°F) [RH = 50%]
Pressure (altimeter): 30.12 inches Hg (1020.0 mb)
Winds: from the SSE (150 degrees) at 5 MPH (4 knots; 2.1 m/s)
Visibility: 6 or more miles (10+ km)
Ceiling: at least 12,000 feet AGL
Clouds: few clouds at 4400 feet AGL
Weather: no significant weather observed at this time

METAR text: EBFS 171055Z 18004G15KT 9999 FEW044 21/11 Q1020 BLU BLU
Conditions at: EBFS (FLORENNES (BEL-A, BE) observed 1055 UTC 17 June 2019
Temperature: 21.0°C (70°F)
Dewpoint: 11.0°C (52°F) [RH = 53%]
Pressure (altimeter): 30.12 inches Hg (1020.0 mb)
Winds: from the S (180 degrees) at 5 MPH (4 knots; 2.1 m/s)
gusting to 17 MPH (15 knots; 7.7 m/s)
Visibility: 6 or more miles (10+ km)
Ceiling: at least 12,000 feet AGL
Clouds: few clouds at 4400 feet AGL
Weather: no significant weather observed at this time

METAR text: EBFS 171025Z 14003KT 9999 FEW042 21/11 Q1020 BLU BLU
Conditions at: EBFS (FLORENNES (BEL-A, BE) observed 1025 UTC 17 June 2019
Temperature: 21.0°C (70°F)
Dewpoint: 11.0°C (52°F) [RH = 53%]
Pressure (altimeter): 30.12 inches Hg (1020.0 mb)
Winds: from the SE (140 degrees) at 3 MPH (3 knots; 1.5 m/s)
Visibility: 6 or more miles (10+ km)
Ceiling: at least 12,000 feet AGL
Clouds: few clouds at 4200 feet AGL
Weather: no significant weather observed at this time

METAR text: EBFS 170955Z 21004KT 9999 FEW036 20/13 Q1021 BLU BLU
Conditions at: EBFS (FLORENNES (BEL-A, BE) observed 0955 UTC 17 June 2019
Temperature: 20.0°C (68°F)
Dewpoint: 13.0°C (55°F) [RH = 64%]
Pressure (altimeter): 30.15 inches Hg (1021.0 mb)
Winds: from the SSW (210 degrees) at 5 MPH (4 knots; 2.1 m/s)
Visibility: 6 or more miles (10+ km)
Ceiling: at least 12,000 feet AGL
Clouds: few clouds at 3600 feet AGL
Weather: no significant weather observed at this time

METAR text: EBFS 170925Z 19004KT 9999 FEW032 20/13 Q1021 BLU BLU
Conditions at: EBFS (FLORENNES (BEL-A, BE) observed 0925 UTC 17 June 2019
Temperature: 20.0°C (68°F)
Dewpoint: 13.0°C (55°F) [RH = 64%]
Pressure (altimeter): 30.15 inches Hg (1021.0 mb)
Winds: from the S (190 degrees) at 5 MPH (4 knots; 2.1 m/s)
Visibility: 6 or more miles (10+ km)
Ceiling: at least 12,000 feet AGL
Clouds: few clouds at 3200 feet AGL
Weather: no significant weather observed at this time

METAR text: EBFS 170855Z 16006KT 9999 FEW032 20/12 Q1021 BLU BLU
Conditions at: EBFS (FLORENNES (BEL-A, BE) observed 0855 UTC 17 June 2019
Temperature: 20.0°C (68°F)
Dewpoint: 12.0°C (54°F) [RH = 60%]
Pressure (altimeter): 30.15 inches Hg (1021.0 mb)
Winds: from the SSE (160 degrees) at 7 MPH (6 knots; 3.1 m/s)
Visibility: 6 or more miles (10+ km)
Ceiling: at least 12,000 feet AGL
Clouds: few clouds at 3200 feet AGL
Weather: no significant weather observed at this time

METAR text: EBFS 170825Z 16005KT 9999 FEW028 19/12 Q1021 BLU BLU
Conditions at: EBFS (FLORENNES (BEL-A, BE) observed 0825 UTC 17 June 2019
Temperature: 19.0°C (66°F)
Dewpoint: 12.0°C (54°F) [RH = 64%]
Pressure (altimeter): 30.15 inches Hg (1021.0 mb)
Winds: from the SSE (160 degrees) at 6 MPH (5 knots; 2.6 m/s)
Visibility: 6 or more miles (10+ km)
Ceiling: at least 12,000 feet AGL
Clouds: few clouds at 2800 feet AGL
Weather: no significant weather observed at this time

METAR text: EBFS 170755Z 15005KT 9999 FEW250 19/12 Q1021 BLU BLU
Conditions at: EBFS (FLORENNES (BEL-A, BE) observed 0755 UTC 17 June 2019
Temperature: 19.0°C (66°F)
Dewpoint: 12.0°C (54°F) [RH = 64%]
Pressure (altimeter): 30.15 inches Hg (1021.0 mb)
Winds: from the SSE (150 degrees) at 6 MPH (5 knots; 2.6 m/s)
Visibility: 6 or more miles (10+ km)
Ceiling: at least 12,000 feet AGL
Clouds: few clouds at 25000 feet AGL
Weather: no significant weather observed at this time

METAR text: EBFS 170725Z 15005KT 9999 FEW250 18/11 Q1021 BLU BLU
Conditions at: EBFS (FLORENNES (BEL-A, BE) observed 0725 UTC 17 June 2019
Temperature: 18.0°C (64°F)
Dewpoint: 11.0°C (52°F) [RH = 64%]
Pressure (altimeter): 30.15 inches Hg (1021.0 mb)
Winds: from the SSE (150 degrees) at 6 MPH (5 knots; 2.6 m/s)
Visibility: 6 or more miles (10+ km)
Ceiling: at least 12,000 feet AGL
Clouds: few clouds at 25000 feet AGL
Weather: no significant weather observed at this time

METAR text: EBFS 170655Z 14004KT 9999 FEW250 18/12 Q1021 BLU BLU
Conditions at: EBFS (FLORENNES (BEL-A, BE) observed 0655 UTC 17 June 2019
Temperature: 18.0°C (64°F)
Dewpoint: 12.0°C (54°F) [RH = 68%]
Pressure (altimeter): 30.15 inches Hg (1021.0 mb)
Winds: from the SE (140 degrees) at 5 MPH (4 knots; 2.1 m/s)
Visibility: 6 or more miles (10+ km)
Ceiling: at least 12,000 feet AGL
Clouds: few clouds at 25000 feet AGL
Weather: no significant weather observed at this time

METAR text: EBFS 170625Z 14004KT 9999 FEW250 17/11 Q1021 BLU BLU
Conditions at: EBFS (FLORENNES (BEL-A, BE) observed 0625 UTC 17 June 2019
Temperature: 17.0°C (63°F)
Dewpoint: 11.0°C (52°F) [RH = 68%]
Pressure (altimeter): 30.15 inches Hg (1021.0 mb)
Winds: from the SE (140 degrees) at 5 MPH (4 knots; 2.1 m/s)
Visibility: 6 or more miles (10+ km)
Ceiling: at least 12,000 feet AGL
Clouds: few clouds at 25000 feet AGL
Weather: no significant weather observed at this time

METAR text: EBFS 170555Z VRB02KT 9999 FEW250 15/11 Q1021 BLU BLU
Conditions at: EBFS (FLORENNES (BEL-A, BE) observed 0555 UTC 17 June 2019
Temperature: 15.0°C (59°F)
Dewpoint: 11.0°C (52°F) [RH = 77%]
Pressure (altimeter): 30.15 inches Hg (1021.0 mb)
Winds: variable direction winds at 2 MPH (2 knots; 1.0 m/s)
Visibility: 6 or more miles (10+ km)
Ceiling: at least 12,000 feet AGL
Clouds: few clouds at 25000 feet AGL
Weather: no significant weather observed at this time

METAR text: EBFS 170525Z 00000KT 9999 FEW250 14/11 Q1021 BLU BLU
Conditions at: EBFS (FLORENNES (BEL-A, BE) observed 0525 UTC 17 June 2019
Temperature: 14.0°C (57°F)
Dewpoint: 11.0°C (52°F) [RH = 82%]
Pressure (altimeter): 30.15 inches Hg (1021.0 mb)
Winds: calm
Visibility: 6 or more miles (10+ km)
Ceiling: at least 12,000 feet AGL
Clouds: few clouds at 25000 feet AGL
Weather: no significant weather observed at this time

METAR text: EBFS 170455Z 07004KT 9999 FEW250 13/11 Q1021 BLU BLU
Conditions at: EBFS (FLORENNES (BEL-A, BE) observed 0455 UTC 17 June 2019
Temperature: 13.0°C (55°F)
Dewpoint: 11.0°C (52°F) [RH = 88%]
Pressure (altimeter): 30.15 inches Hg (1021.0 mb)
Winds: from the ENE (70 degrees) at 5 MPH (4 knots; 2.1 m/s)
Visibility: 6 or more miles (10+ km)
Ceiling: at least 12,000 feet AGL
Clouds: few clouds at 25000 feet AGL
Weather: no significant weather observed at this time

METAR text: EBFS 170425Z 06004KT 9999 FEW250 12/10 Q1021 BLU BLU
Conditions at: EBFS (FLORENNES (BEL-A, BE) observed 0425 UTC 17 June 2019
Temperature: 12.0°C (54°F)
Dewpoint: 10.0°C (50°F) [RH = 88%]
Pressure (altimeter): 30.15 inches Hg (1021.0 mb)
Winds: from the ENE (60 degrees) at 5 MPH (4 knots; 2.1 m/s)
Visibility: 6 or more miles (10+ km)
Ceiling: at least 12,000 feet AGL
Clouds: few clouds at 25000 feet AGL
Weather: no significant weather observed at this time

METAR text: EBFS 170355Z 08003KT 9999 FEW250 12/11 Q1021 BLU BLU
Conditions at: EBFS (FLORENNES (BEL-A, BE) observed 0355 UTC 17 June 2019
Temperature: 12.0°C (54°F)
Dewpoint: 11.0°C (52°F) [RH = 94%]
Pressure (altimeter): 30.15 inches Hg (1021.0 mb)
Winds: from the E (80 degrees) at 3 MPH (3 knots; 1.5 m/s)
Visibility: 6 or more miles (10+ km)
Ceiling: at least 12,000 feet AGL
Clouds: few clouds at 25000 feet AGL
Weather: no significant weather observed at this time

METAR text: EBFS 170345Z 09003KT 9999 FEW250 12/10 Q1021 BLU BLU
Conditions at: EBFS (FLORENNES (BEL-A, BE) observed 0345 UTC 17 June 2019
Temperature: 12.0°C (54°F)
Dewpoint: 10.0°C (50°F) [RH = 88%]
Pressure (altimeter): 30.15 inches Hg (1021.0 mb)
Winds: from the E (90 degrees) at 3 MPH (3 knots; 1.5 m/s)
Visibility: 6 or more miles (10+ km)
Ceiling: at least 12,000 feet AGL
Clouds: few clouds at 25000 feet AGL
Weather: no significant weather observed at this time

METAR text: EBFS 170325Z AUTO 09003KT 9999 SCT100/// BKN120/// OVC130/// 12/11 Q1021 BLU
Conditions at: EBFS (FLORENNES (BEL-A, BE) observed 0325 UTC 17 June 2019
Temperature: 12.0°C (54°F)
Dewpoint: 11.0°C (52°F) [RH = 94%]
Pressure (altimeter): 30.15 inches Hg (1021.0 mb)
Winds: from the E (90 degrees) at 3 MPH (3 knots; 1.5 m/s)
Visibility: 6 or more miles (10+ km)
Ceiling: 12000 feet AGL
Clouds: scattered clouds at 10000 feet AGL
broken clouds at 12000 feet AGL
overcast cloud deck at 13000 feet AGL
Weather: no significant weather observed at this time

METAR text: EBFS 170255Z AUTO 07004KT 9999 FEW080/// BKN095/// BKN120/// 12/11 Q1021 BLU
Conditions at: EBFS (FLORENNES (BEL-A, BE) observed 0255 UTC 17 June 2019
Temperature: 12.0°C (54°F)
Dewpoint: 11.0°C (52°F) [RH = 94%]
Pressure (altimeter): 30.15 inches Hg (1021.0 mb)
Winds: from the ENE (70 degrees) at 5 MPH (4 knots; 2.1 m/s)
Visibility: 6 or more miles (10+ km)
Ceiling: 9500 feet AGL
Clouds: few clouds at 8000 feet AGL
broken clouds at 9500 feet AGL
broken clouds at 12000 feet AGL
Weather: no significant weather observed at this time

METAR text: EBFS 170225Z AUTO 08003KT 9999 SCT095/// BKN110/// OVC120/// 13/11 Q1021 BLU
Conditions at: EBFS (FLORENNES (BEL-A, BE) observed 0225 UTC 17 June 2019
Temperature: 13.0°C (55°F)
Dewpoint: 11.0°C (52°F) [RH = 88%]
Pressure (altimeter): 30.15 inches Hg (1021.0 mb)
Winds: from the E (80 degrees) at 3 MPH (3 knots; 1.5 m/s)
Visibility: 6 or more miles (10+ km)
Ceiling: 11000 feet AGL
Clouds: scattered clouds at 9500 feet AGL
broken clouds at 11000 feet AGL
overcast cloud deck at 12000 feet AGL
Weather: no significant weather observed at this time

METAR text: EBFS 170155Z AUTO VRB01KT 9999 FEW085/// SCT100/// BKN110/// 13/11 Q1021 BLU
Conditions at: EBFS (FLORENNES (BEL-A, BE) observed 0155 UTC 17 June 2019
Temperature: 13.0°C (55°F)
Dewpoint: 11.0°C (52°F) [RH = 88%]
Pressure (altimeter): 30.15 inches Hg (1021.0 mb)
Winds: variable direction winds at 1 MPH (1 knots; 0.5 m/s)
Visibility: 6 or more miles (10+ km)
Ceiling: 11000 feet AGL
Clouds: few clouds at 8500 feet AGL
scattered clouds at 10000 feet AGL
broken clouds at 11000 feet AGL
Weather: no significant weather observed at this time

METAR text: EBFS 170125Z AUTO 07003KT 9999 SCT090/// BKN110/// OVC120/// 13/11 Q1021 BLU
Conditions at: EBFS (FLORENNES (BEL-A, BE) observed 0125 UTC 17 June 2019
Temperature: 13.0°C (55°F)
Dewpoint: 11.0°C (52°F) [RH = 88%]
Pressure (altimeter): 30.15 inches Hg (1021.0 mb)
Winds: from the ENE (70 degrees) at 3 MPH (3 knots; 1.5 m/s)
Visibility: 6 or more miles (10+ km)
Ceiling: 11000 feet AGL
Clouds: scattered clouds at 9000 feet AGL
broken clouds at 11000 feet AGL
overcast cloud deck at 12000 feet AGL
Weather: no significant weather observed at this time

METAR text: EBFS 170055Z AUTO 07004KT 9999 FEW090/// BKN100/// BKN120/// 12/11 Q1022 BLU
Conditions at: EBFS (FLORENNES (BEL-A, BE) observed 0055 UTC 17 June 2019
Temperature: 12.0°C (54°F)
Dewpoint: 11.0°C (52°F) [RH = 94%]
Pressure (altimeter): 30.18 inches Hg (1022.0 mb)
Winds: from the ENE (70 degrees) at 5 MPH (4 knots; 2.1 m/s)
Visibility: 6 or more miles (10+ km)
Ceiling: 10000 feet AGL
Clouds: few clouds at 9000 feet AGL
broken clouds at 10000 feet AGL
broken clouds at 12000 feet AGL
Weather: no significant weather observed at this time

METAR text: EBFS 170025Z AUTO VRB02KT 9999 FEW095/// BKN110/// OVC120/// 12/11 Q1022 BLU
Conditions at: EBFS (FLORENNES (BEL-A, BE) observed 0025 UTC 17 June 2019
Temperature: 12.0°C (54°F)
Dewpoint: 11.0°C (52°F) [RH = 94%]
Pressure (altimeter): 30.18 inches Hg (1022.0 mb)
Winds: variable direction winds at 2 MPH (2 knots; 1.0 m/s)
Visibility: 6 or more miles (10+ km)
Ceiling: 11000 feet AGL
Clouds: few clouds at 9500 feet AGL
broken clouds at 11000 feet AGL
overcast cloud deck at 12000 feet AGL
Weather: no significant weather observed at this time

METAR text: EBFS 162355Z AUTO 08003KT 9999 FEW080/// BKN100/// OVC120/// 14/11 Q1022 BLU
Conditions at: EBFS (FLORENNES (BEL-A, BE) observed 2355 UTC 16 June 2019
Temperature: 14.0°C (57°F)
Dewpoint: 11.0°C (52°F) [RH = 82%]
Pressure (altimeter): 30.18 inches Hg (1022.0 mb)
Winds: from the E (80 degrees) at 3 MPH (3 knots; 1.5 m/s)
Visibility: 6 or more miles (10+ km)
Ceiling: 10000 feet AGL
Clouds: few clouds at 8000 feet AGL
broken clouds at 10000 feet AGL
overcast cloud deck at 12000 feet AGL
Weather: no significant weather observed at this time

METAR text: EBFS 162325Z AUTO VRB02KT 9999 SCT095/// BKN110/// 13/11 Q1022 BLU
Conditions at: EBFS (FLORENNES (BEL-A, BE) observed 2325 UTC 16 June 2019
Temperature: 13.0°C (55°F)
Dewpoint: 11.0°C (52°F) [RH = 88%]
Pressure (altimeter): 30.18 inches Hg (1022.0 mb)
Winds: variable direction winds at 2 MPH (2 knots; 1.0 m/s)
Visibility: 6 or more miles (10+ km)
Ceiling: 11000 feet AGL
Clouds: scattered clouds at 9500 feet AGL
broken clouds at 11000 feet AGL
Weather: no significant weather observed at this time

METAR text: EBFS 162255Z AUTO VRB01KT 9999 FEW095/// BKN110/// BKN220/// 14/11 Q1022 BLU
Conditions at: EBFS (FLORENNES (BEL-A, BE) observed 2255 UTC 16 June 2019
Temperature: 14.0°C (57°F)
Dewpoint: 11.0°C (52°F) [RH = 82%]
Pressure (altimeter): 30.18 inches Hg (1022.0 mb)
Winds: variable direction winds at 1 MPH (1 knots; 0.5 m/s)
Visibility: 6 or more miles (10+ km)
Ceiling: 11000 feet AGL
Clouds: few clouds at 9500 feet AGL
broken clouds at 11000 feet AGL
broken clouds at 22000 feet AGL
Weather: no significant weather observed at this time

METAR text: EBFS 162225Z AUTO VRB01KT 9999 FEW130/// BKN220/// 14/11 Q1022 BLU
Conditions at: EBFS (FLORENNES (BEL-A, BE) observed 2225 UTC 16 June 2019
Temperature: 14.0°C (57°F)
Dewpoint: 11.0°C (52°F) [RH = 82%]
Pressure (altimeter): 30.18 inches Hg (1022.0 mb)
Winds: variable direction winds at 1 MPH (1 knots; 0.5 m/s)
Visibility: 6 or more miles (10+ km)
Ceiling: 22000 feet AGL
Clouds: few clouds at 13000 feet AGL
broken clouds at 22000 feet AGL
Weather: no significant weather observed at this time

METAR text: EBFS 162155Z AUTO VRB01KT 9999 BKN210/// 14/11 Q1022 BLU
Conditions at: EBFS (FLORENNES (BEL-A, BE) observed 2155 UTC 16 June 2019
Temperature: 14.0°C (57°F)
Dewpoint: 11.0°C (52°F) [RH = 82%]
Pressure (altimeter): 30.18 inches Hg (1022.0 mb)
Winds: variable direction winds at 1 MPH (1 knots; 0.5 m/s)
Visibility: 6 or more miles (10+ km)
Ceiling: 21000 feet AGL
Clouds: broken clouds at 21000 feet AGL
Weather: no significant weather observed at this time

METAR text: EBFS 162125Z AUTO 00000KT 9999 BKN200/// 15/11 Q1022 BLU
Conditions at: EBFS (FLORENNES (BEL-A, BE) observed 2125 UTC 16 June 2019
Temperature: 15.0°C (59°F)
Dewpoint: 11.0°C (52°F) [RH = 77%]
Pressure (altimeter): 30.18 inches Hg (1022.0 mb)
Winds: calm
Visibility: 6 or more miles (10+ km)
Ceiling: 20000 feet AGL
Clouds: broken clouds at 20000 feet AGL
Weather: no significant weather observed at this time

METAR text: EBFS 162055Z AUTO VRB01KT 9999 BKN210/// 15/11 Q1022 BLU
Conditions at: EBFS (FLORENNES (BEL-A, BE) observed 2055 UTC 16 June 2019
Temperature: 15.0°C (59°F)
Dewpoint: 11.0°C (52°F) [RH = 77%]
Pressure (altimeter): 30.18 inches Hg (1022.0 mb)
Winds: variable direction winds at 1 MPH (1 knots; 0.5 m/s)
Visibility: 6 or more miles (10+ km)
Ceiling: 21000 feet AGL
Clouds: broken clouds at 21000 feet AGL
Weather: no significant weather observed at this time

METAR text: EBFS 162025Z AUTO VRB01KT 9999 SCT150/// BKN220/// 16/12 Q1022 BLU
Conditions at: EBFS (FLORENNES (BEL-A, BE) observed 2025 UTC 16 June 2019
Temperature: 16.0°C (61°F)
Dewpoint: 12.0°C (54°F) [RH = 77%]
Pressure (altimeter): 30.18 inches Hg (1022.0 mb)
Winds: variable direction winds at 1 MPH (1 knots; 0.5 m/s)
Visibility: 6 or more miles (10+ km)
Ceiling: 22000 feet AGL
Clouds: scattered clouds at 15000 feet AGL
broken clouds at 22000 feet AGL
Weather: no significant weather observed at this time

METAR text: EBFS 161955Z AUTO VRB02KT 9999 FEW150/// BKN210/// 17/12 Q1022 BLU
Conditions at: EBFS (FLORENNES (BEL-A, BE) observed 1955 UTC 16 June 2019
Temperature: 17.0°C (63°F)
Dewpoint: 12.0°C (54°F) [RH = 72%]
Pressure (altimeter): 30.18 inches Hg (1022.0 mb)
Winds: variable direction winds at 2 MPH (2 knots; 1.0 m/s)
Visibility: 6 or more miles (10+ km)
Ceiling: 21000 feet AGL
Clouds: few clouds at 15000 feet AGL
broken clouds at 21000 feet AGL
Weather: no significant weather observed at this time

METAR text: EBFS 161925Z AUTO VRB02KT 9999 SCT150/// BKN210/// 18/11 Q1021 BLU
Conditions at: EBFS (FLORENNES (BEL-A, BE) observed 1925 UTC 16 June 2019
Temperature: 18.0°C (64°F)
Dewpoint: 11.0°C (52°F) [RH = 64%]
Pressure (altimeter): 30.15 inches Hg (1021.0 mb)
Winds: variable direction winds at 2 MPH (2 knots; 1.0 m/s)
Visibility: 6 or more miles (10+ km)
Ceiling: 21000 feet AGL
Clouds: scattered clouds at 15000 feet AGL
broken clouds at 21000 feet AGL
Weather: no significant weather observed at this time

METAR text: EBFS 161855Z AUTO 22005KT 9999 FEW075/// 19/11 Q1021 BLU
Conditions at: EBFS (FLORENNES (BEL-A, BE) observed 1855 UTC 16 June 2019
Temperature: 19.0°C (66°F)
Dewpoint: 11.0°C (52°F) [RH = 60%]
Pressure (altimeter): 30.15 inches Hg (1021.0 mb)
Winds: from the SW (220 degrees) at 6 MPH (5 knots; 2.6 m/s)
Visibility: 6 or more miles (10+ km)
Ceiling: at least 12,000 feet AGL
Clouds: few clouds at 7500 feet AGL
Weather: no significant weather observed at this time

METAR text: EBFS 161825Z AUTO 22007KT 9999 BKN075/// 19/11 Q1021 BLU
Conditions at: EBFS (FLORENNES (BEL-A, BE) observed 1825 UTC 16 June 2019
Temperature: 19.0°C (66°F)
Dewpoint: 11.0°C (52°F) [RH = 60%]
Pressure (altimeter): 30.15 inches Hg (1021.0 mb)
Winds: from the SW (220 degrees) at 8 MPH (7 knots; 3.6 m/s)
Visibility: 6 or more miles (10+ km)
Ceiling: 7500 feet AGL
Clouds: broken clouds at 7500 feet AGL
Weather: no significant weather observed at this time

METAR text: EBFS 161755Z AUTO 21006KT 9999 BKN075/// 19/11 Q1022 BLU
Conditions at: EBFS (FLORENNES (BEL-A, BE) observed 1755 UTC 16 June 2019
Temperature: 19.0°C (66°F)
Dewpoint: 11.0°C (52°F) [RH = 60%]
Pressure (altimeter): 30.18 inches Hg (1022.0 mb)
Winds: from the SSW (210 degrees) at 7 MPH (6 knots; 3.1 m/s)
Visibility: 6 or more miles (10+ km)
Ceiling: 7500 feet AGL
Clouds: broken clouds at 7500 feet AGL
Weather: no significant weather observed at this time

METAR text: EBFS 161725Z AUTO 23008KT 9999 FEW075/// 20/11 Q1021 BLU
Conditions at: EBFS (FLORENNES (BEL-A, BE) observed 1725 UTC 16 June 2019
Temperature: 20.0°C (68°F)
Dewpoint: 11.0°C (52°F) [RH = 56%]
Pressure (altimeter): 30.15 inches Hg (1021.0 mb)
Winds: from the SW (230 degrees) at 9 MPH (8 knots; 4.1 m/s)
Visibility: 6 or more miles (10+ km)
Ceiling: at least 12,000 feet AGL
Clouds: few clouds at 7500 feet AGL
Weather: no significant weather observed at this time

METAR text: EBFS 161655Z AUTO 22011KT 9999 FEW039/// 20/11 Q1021 BLU
Conditions at: EBFS (FLORENNES (BEL-A, BE) observed 1655 UTC 16 June 2019
Temperature: 20.0°C (68°F)
Dewpoint: 11.0°C (52°F) [RH = 56%]
Pressure (altimeter): 30.15 inches Hg (1021.0 mb)
Winds: from the SW (220 degrees) at 13 MPH (11 knots; 5.7 m/s)
Visibility: 6 or more miles (10+ km)
Ceiling: at least 12,000 feet AGL
Clouds: few clouds at 3900 feet AGL
Weather: no significant weather observed at this time

METAR text: EBFS 161625Z AUTO 20008KT 9999 FEW039/// 19/10 Q1021 BLU
Conditions at: EBFS (FLORENNES (BEL-A, BE) observed 1625 UTC 16 June 2019
Temperature: 19.0°C (66°F)
Dewpoint: 10.0°C (50°F) [RH = 56%]
Pressure (altimeter): 30.15 inches Hg (1021.0 mb)
Winds: from the SSW (200 degrees) at 9 MPH (8 knots; 4.1 m/s)
Visibility: 6 or more miles (10+ km)
Ceiling: at least 12,000 feet AGL
Clouds: few clouds at 3900 feet AGL
Weather: no significant weather observed at this time

METAR text: EBFS 161555Z AUTO 20010KT 9999 FEW039/// 20/10 Q1021 BLU
Conditions at: EBFS (FLORENNES (BEL-A, BE) observed 1555 UTC 16 June 2019
Temperature: 20.0°C (68°F)
Dewpoint: 10.0°C (50°F) [RH = 53%]
Pressure (altimeter): 30.15 inches Hg (1021.0 mb)
Winds: from the SSW (200 degrees) at 12 MPH (10 knots; 5.1 m/s)
Visibility: 6 or more miles (10+ km)
Ceiling: at least 12,000 feet AGL
Clouds: few clouds at 3900 feet AGL
Weather: no significant weather observed at this time

METAR text: EBFS 161525Z AUTO 20007KT 9999 FEW047/// 20/11 Q1021 BLU
Conditions at: EBFS (FLORENNES (BEL-A, BE) observed 1525 UTC 16 June 2019
Temperature: 20.0°C (68°F)
Dewpoint: 11.0°C (52°F) [RH = 56%]
Pressure (altimeter): 30.15 inches Hg (1021.0 mb)
Winds: from the SSW (200 degrees) at 8 MPH (7 knots; 3.6 m/s)
Visibility: 6 or more miles (10+ km)
Ceiling: at least 12,000 feet AGL
Clouds: few clouds at 4700 feet AGL
Weather: no significant weather observed at this time

Forecast for: EBFS (FLORENNES (BEL-A, BE)
Text: TAF EBFS 171541Z 1719/1807 32004KT 9999 FEW050 SCT250
Forecast period: 1900 to 2000 UTC 17 June 2019
Forecast type: FROM: standard forecast or significant change
Winds: from the NW (320 degrees) at 5 MPH (4 knots; 2.1 m/s)
Visibility: 6 or more miles 10+ km)
Ceiling: at least 12,000 feet AGL
Clouds: few clouds at 5000 feet AGL
scattered clouds at 25000 feet AGL
Weather: no significant weather forecast for this period
Text: BECMG 1720/1722 04004KT
Forecast period: 2000 UTC 17 June 2019 to 0700 UTC 18 June 2019
Forecast type: BECOMING: Conditions expected to become as follows by 2200 UTC 17 June 2019
Winds: from the NE (40 degrees) at 5 MPH (4 knots; 2.1 m/s)
Visibility: 6 or more miles 10+ km)
Ceiling: at least 12,000 feet AGL
Clouds: few clouds at 5000 feet AGL
scattered clouds at 25000 feet AGL
Weather: no significant weather forecast for this period
Text: PROB30
Forecast period: 0400 to 0700 UTC 18 June 2019
Forecast type: TEMPORARY: The following changes expected for less than half the time period
Winds: variable direction winds at 2 MPH (2 knots; 1.0 m/s)
Visibility: missing
Ceiling: at least 12,000 feet AGL
Clouds: scattered clouds at 5000 feet AGL
Weather: no significant weather forecast for this period